sensor_id;sensor_type;location;lat;lon;timestamp;temperature;humidity
8824;DHT22;4448;50.904;4.694;2023-05-17T00:02:06;12.50;99.90
8824;DHT22;4448;50.904;4.694;2023-05-17T00:04:31;12.50;99.90
8824;DHT22;4448;50.904;4.694;2023-05-17T00:07:00;12.50;99.90
8824;DHT22;4448;50.904;4.694;2023-05-17T00:09:26;12.50;99.90
8824;DHT22;4448;50.904;4.694;2023-05-17T00:11:51;12.50;99.90
8824;DHT22;4448;50.904;4.694;2023-05-17T00:14:17;12.40;99.90
8824;DHT22;4448;50.904;4.694;2023-05-17T00:16:43;12.40;99.90
8824;DHT22;4448;50.904;4.694;2023-05-17T00:19:09;12.40;99.90
8824;DHT22;4448;50.904;4.694;2023-05-17T00:21:34;12.40;99.90
8824;DHT22;4448;50.904;4.694;2023-05-17T00:24:00;12.40;99.90
8824;DHT22;4448;50.904;4.694;2023-05-17T00:26:26;12.40;99.90
8824;DHT22;4448;50.904;4.694;2023-05-17T00:28:51;12.30;99.90
8824;DHT22;4448;50.904;4.694;2023-05-17T00:31:17;12.40;99.90
8824;DHT22;4448;50.904;4.694;2023-05-17T00:33:43;12.30;99.90
8824;DHT22;4448;50.904;4.694;2023-05-17T00:36:08;12.30;99.90
8824;DHT22;4448;50.904;4.694;2023-05-17T00:38:34;12.30;99.90
8824;DHT22;4448;50.904;4.694;2023-05-17T00:41:00;12.30;99.90
8824;DHT22;4448;50.904;4.694;2023-05-17T00:43:26;12.30;99.90
8824;DHT22;4448;50.904;4.694;2023-05-17T00:45:52;12.30;99.90
8824;DHT22;4448;50.904;4.694;2023-05-17T00:48:18;12.30;99.90
8824;DHT22;4448;50.904;4.694;2023-05-17T00:50:50;12.30;99.90
8824;DHT22;4448;50.904;4.694;2023-05-17T00:53:17;12.20;99.90
8824;DHT22;4448;50.904;4.694;2023-05-17T00:55:43;12.20;99.90
8824;DHT22;4448;50.904;4.694;2023-05-17T00:58:13;12.20;99.90
8824;DHT22;4448;50.904;4.694;2023-05-17T01:00:40;12.20;99.90
8824;DHT22;4448;50.904;4.694;2023-05-17T01:03:06;12.20;99.90
8824;DHT22;4448;50.904;4.694;2023-05-17T01:05:31;12.20;99.90
8824;DHT22;4448;50.904;4.694;2023-05-17T01:07:57;12.20;99.90
8824;DHT22;4448;50.904;4.694;2023-05-17T01:10:38;12.10;99.90
8824;DHT22;4448;50.904;4.694;2023-05-17T01:13:09;12.10;99.90
8824;DHT22;4448;50.904;4.694;2023-05-17T01:15:52;12.10;99.90
8824;DHT22;4448;50.904;4.694;2023-05-17T01:18:37;12.10;99.90
8824;DHT22;4448;50.904;4.694;2023-05-17T01:21:11;12.00;99.90
8824;DHT22;4448;50.904;4.694;2023-05-17T01:23:53;12.00;99.90
8824;DHT22;4448;50.904;4.694;2023-05-17T01:26:39;12.00;99.90
8824;DHT22;4448;50.904;4.694;2023-05-17T01:29:08;12.00;99.90
8824;DHT22;4448;50.904;4.694;2023-05-17T01:31:35;12.00;99.90
8824;DHT22;4448;50.904;4.694;2023-05-17T01:34:08;12.00;99.90
8824;DHT22;4448;50.904;4.694;2023-05-17T01:36:34;12.00;99.90
8824;DHT22;4448;50.904;4.694;2023-05-17T01:39:02;11.90;99.90
8824;DHT22;4448;50.904;4.694;2023-05-17T01:41:40;11.90;99.90
8824;DHT22;4448;50.904;4.694;2023-05-17T01:44:23;11.90;99.90
8824;DHT22;4448;50.904;4.694;2023-05-17T01:46:54;11.90;99.90
8824;DHT22;4448;50.904;4.694;2023-05-17T01:49:29;11.90;99.90
8824;DHT22;4448;50.904;4.694;2023-05-17T01:54:24;11.90;99.90
8824;DHT22;4448;50.904;4.694;2023-05-17T01:56:57;11.90;99.90
8824;DHT22;4448;50.904;4.694;2023-05-17T01:59:23;11.90;99.90
8824;DHT22;4448;50.904;4.694;2023-05-17T02:01:58;11.90;99.90
8824;DHT22;4448;50.904;4.694;2023-05-17T02:04:31;11.80;99.90
8824;DHT22;4448;50.904;4.694;2023-05-17T02:06:56;11.80;99.90
8824;DHT22;4448;50.904;4.694;2023-05-17T02:09:22;11.80;99.90
8824;DHT22;4448;50.904;4.694;2023-05-17T02:11:48;11.80;99.90
8824;DHT22;4448;50.904;4.694;2023-05-17T02:14:13;11.80;99.90
8824;DHT22;4448;50.904;4.694;2023-05-17T02:16:39;11.80;99.90
8824;DHT22;4448;50.904;4.694;2023-05-17T02:19:05;11.80;99.90
8824;DHT22;4448;50.904;4.694;2023-05-17T02:21:33;11.80;99.90
8824;DHT22;4448;50.904;4.694;2023-05-17T02:23:59;11.80;99.90
8824;DHT22;4448;50.904;4.694;2023-05-17T02:26:25;11.70;99.90
8824;DHT22;4448;50.904;4.694;2023-05-17T02:28:52;11.70;99.90
8824;DHT22;4448;50.904;4.694;2023-05-17T02:31:18;11.70;99.90
8824;DHT22;4448;50.904;4.694;2023-05-17T02:33:43;11.70;99.90
8824;DHT22;4448;50.904;4.694;2023-05-17T02:36:09;11.60;99.90
8824;DHT22;4448;50.904;4.694;2023-05-17T02:38:35;11.70;99.90
8824;DHT22;4448;50.904;4.694;2023-05-17T02:41:01;11.60;99.90
8824;DHT22;4448;50.904;4.694;2023-05-17T02:43:28;11.60;99.90
8824;DHT22;4448;50.904;4.694;2023-05-17T02:45:53;11.60;99.90
8824;DHT22;4448;50.904;4.694;2023-05-17T02:48:19;11.60;99.90
8824;DHT22;4448;50.904;4.694;2023-05-17T02:50:44;11.60;99.90
8824;DHT22;4448;50.904;4.694;2023-05-17T02:53:10;11.50;99.90
8824;DHT22;4448;50.904;4.694;2023-05-17T02:55:36;11.60;99.90
8824;DHT22;4448;50.904;4.694;2023-05-17T02:58:01;11.50;99.90
8824;DHT22;4448;50.904;4.694;2023-05-17T03:00:28;11.50;99.90
8824;DHT22;4448;50.904;4.694;2023-05-17T03:02:54;11.50;99.90
8824;DHT22;4448;50.904;4.694;2023-05-17T03:05:20;11.50;99.90
8824;DHT22;4448;50.904;4.694;2023-05-17T03:07:45;11.50;99.90
8824;DHT22;4448;50.904;4.694;2023-05-17T03:10:11;11.50;99.90
8824;DHT22;4448;50.904;4.694;2023-05-17T03:12:37;11.50;99.90
8824;DHT22;4448;50.904;4.694;2023-05-17T03:15:03;11.50;99.90
8824;DHT22;4448;50.904;4.694;2023-05-17T03:17:28;11.50;99.90
8824;DHT22;4448;50.904;4.694;2023-05-17T03:19:54;11.40;99.90
8824;DHT22;4448;50.904;4.694;2023-05-17T03:22:20;11.50;99.90
8824;DHT22;4448;50.904;4.694;2023-05-17T03:24:45;11.50;99.90
8824;DHT22;4448;50.904;4.694;2023-05-17T03:27:11;11.40;99.90
8824;DHT22;4448;50.904;4.694;2023-05-17T03:29:37;11.40;99.90
8824;DHT22;4448;50.904;4.694;2023-05-17T03:32:03;11.40;99.90
8824;DHT22;4448;50.904;4.694;2023-05-17T03:34:29;11.40;99.90
8824;DHT22;4448;50.904;4.694;2023-05-17T03:36:54;11.40;99.90
8824;DHT22;4448;50.904;4.694;2023-05-17T03:39:20;11.40;99.90
8824;DHT22;4448;50.904;4.694;2023-05-17T03:41:46;11.40;99.90
8824;DHT22;4448;50.904;4.694;2023-05-17T03:44:11;11.40;99.90
8824;DHT22;4448;50.904;4.694;2023-05-17T03:46:37;11.30;99.90
8824;DHT22;4448;50.904;4.694;2023-05-17T03:49:03;11.30;99.90
8824;DHT22;4448;50.904;4.694;2023-05-17T03:51:28;11.30;99.90
8824;DHT22;4448;50.904;4.694;2023-05-17T03:53:58;11.30;99.90
8824;DHT22;4448;50.904;4.694;2023-05-17T03:56:24;11.30;99.90
8824;DHT22;4448;50.904;4.694;2023-05-17T03:58:50;11.20;99.90
8824;DHT22;4448;50.904;4.694;2023-05-17T04:01:16;11.30;99.90
8824;DHT22;4448;50.904;4.694;2023-05-17T04:03:42;11.20;99.90
8824;DHT22;4448;50.904;4.694;2023-05-17T04:06:08;11.30;99.90
8824;DHT22;4448;50.904;4.694;2023-05-17T04:08:34;11.30;99.90
8824;DHT22;4448;50.904;4.694;2023-05-17T04:11:00;11.30;99.90
8824;DHT22;4448;50.904;4.694;2023-05-17T04:13:38;11.30;99.90
8824;DHT22;4448;50.904;4.694;2023-05-17T04:16:05;11.30;99.90
8824;DHT22;4448;50.904;4.694;2023-05-17T04:18:35;11.30;99.90
8824;DHT22;4448;50.904;4.694;2023-05-17T04:21:02;11.30;99.90
8824;DHT22;4448;50.904;4.694;2023-05-17T04:23:29;11.30;99.90
8824;DHT22;4448;50.904;4.694;2023-05-17T04:25:54;11.30;99.90
8824;DHT22;4448;50.904;4.694;2023-05-17T04:28:22;11.30;99.90
8824;DHT22;4448;50.904;4.694;2023-05-17T04:30:48;11.30;99.90
8824;DHT22;4448;50.904;4.694;2023-05-17T04:33:14;11.40;99.90
8824;DHT22;4448;50.904;4.694;2023-05-17T04:35:41;11.40;99.90
8824;DHT22;4448;50.904;4.694;2023-05-17T04:38:07;11.40;99.90
8824;DHT22;4448;50.904;4.694;2023-05-17T04:40:34;11.50;99.90
8824;DHT22;4448;50.904;4.694;2023-05-17T04:43:00;11.50;99.90
8824;DHT22;4448;50.904;4.694;2023-05-17T04:45:26;11.50;99.90
8824;DHT22;4448;50.904;4.694;2023-05-17T04:47:51;11.60;99.90
8824;DHT22;4448;50.904;4.694;2023-05-17T04:50:18;11.60;99.90
8824;DHT22;4448;50.904;4.694;2023-05-17T04:52:45;11.60;99.90
8824;DHT22;4448;50.904;4.694;2023-05-17T04:55:11;11.70;99.90
8824;DHT22;4448;50.904;4.694;2023-05-17T04:57:37;11.70;99.90
8824;DHT22;4448;50.904;4.694;2023-05-17T05:00:04;11.70;99.90
8824;DHT22;4448;50.904;4.694;2023-05-17T05:02:31;11.70;99.90
8824;DHT22;4448;50.904;4.694;2023-05-17T05:04:57;11.80;99.90
8824;DHT22;4448;50.904;4.694;2023-05-17T05:07:22;11.80;99.90
8824;DHT22;4448;50.904;4.694;2023-05-17T05:09:48;11.80;99.90
8824;DHT22;4448;50.904;4.694;2023-05-17T05:12:14;11.90;99.90
8824;DHT22;4448;50.904;4.694;2023-05-17T05:14:40;11.90;99.90
8824;DHT22;4448;50.904;4.694;2023-05-17T05:17:06;11.90;99.90
8824;DHT22;4448;50.904;4.694;2023-05-17T05:19:31;11.90;99.90
8824;DHT22;4448;50.904;4.694;2023-05-17T05:21:57;12.00;99.90
8824;DHT22;4448;50.904;4.694;2023-05-17T05:24:23;12.00;99.90
8824;DHT22;4448;50.904;4.694;2023-05-17T05:26:48;12.00;99.90
8824;DHT22;4448;50.904;4.694;2023-05-17T05:29:14;12.10;99.90
8824;DHT22;4448;50.904;4.694;2023-05-17T05:31:40;12.10;99.90
8824;DHT22;4448;50.904;4.694;2023-05-17T05:34:05;12.10;99.90
8824;DHT22;4448;50.904;4.694;2023-05-17T05:36:31;12.20;99.90
8824;DHT22;4448;50.904;4.694;2023-05-17T05:38:57;12.20;99.90
8824;DHT22;4448;50.904;4.694;2023-05-17T05:41:23;12.20;99.90
8824;DHT22;4448;50.904;4.694;2023-05-17T05:43:48;12.20;99.90
8824;DHT22;4448;50.904;4.694;2023-05-17T05:46:14;12.20;99.90
8824;DHT22;4448;50.904;4.694;2023-05-17T05:48:40;12.30;99.90
8824;DHT22;4448;50.904;4.694;2023-05-17T05:51:06;12.30;99.90
8824;DHT22;4448;50.904;4.694;2023-05-17T05:53:32;12.30;99.90
8824;DHT22;4448;50.904;4.694;2023-05-17T05:55:58;12.40;99.90
8824;DHT22;4448;50.904;4.694;2023-05-17T05:58:23;12.40;99.90
8824;DHT22;4448;50.904;4.694;2023-05-17T06:00:49;12.40;99.90
8824;DHT22;4448;50.904;4.694;2023-05-17T06:03:15;12.50;99.90
8824;DHT22;4448;50.904;4.694;2023-05-17T06:05:41;12.50;99.90
8824;DHT22;4448;50.904;4.694;2023-05-17T06:08:07;12.50;99.90
8824;DHT22;4448;50.904;4.694;2023-05-17T06:10:32;12.60;99.90
8824;DHT22;4448;50.904;4.694;2023-05-17T06:12:58;12.60;99.90
8824;DHT22;4448;50.904;4.694;2023-05-17T06:15:26;12.60;99.90
8824;DHT22;4448;50.904;4.694;2023-05-17T06:17:52;12.70;99.90
8824;DHT22;4448;50.904;4.694;2023-05-17T06:20:18;12.70;99.90
8824;DHT22;4448;50.904;4.694;2023-05-17T06:22:44;12.70;99.90
8824;DHT22;4448;50.904;4.694;2023-05-17T06:25:10;12.80;99.90
8824;DHT22;4448;50.904;4.694;2023-05-17T06:27:36;12.80;99.90
8824;DHT22;4448;50.904;4.694;2023-05-17T06:30:02;12.80;99.90
8824;DHT22;4448;50.904;4.694;2023-05-17T06:32:29;12.90;99.90
8824;DHT22;4448;50.904;4.694;2023-05-17T06:34:55;12.90;99.90
8824;DHT22;4448;50.904;4.694;2023-05-17T06:37:22;12.90;99.90
8824;DHT22;4448;50.904;4.694;2023-05-17T06:39:50;13.00;99.90
8824;DHT22;4448;50.904;4.694;2023-05-17T06:42:17;13.00;99.90
8824;DHT22;4448;50.904;4.694;2023-05-17T06:44:43;13.10;99.90
8824;DHT22;4448;50.904;4.694;2023-05-17T06:47:09;13.10;99.90
8824;DHT22;4448;50.904;4.694;2023-05-17T06:49:36;13.10;99.90
8824;DHT22;4448;50.904;4.694;2023-05-17T06:52:02;13.20;99.90
8824;DHT22;4448;50.904;4.694;2023-05-17T06:54:30;13.30;99.90
8824;DHT22;4448;50.904;4.694;2023-05-17T06:57:02;13.30;99.90
8824;DHT22;4448;50.904;4.694;2023-05-17T06:59:28;13.30;99.90
8824;DHT22;4448;50.904;4.694;2023-05-17T07:01:54;13.30;99.90
8824;DHT22;4448;50.904;4.694;2023-05-17T07:04:20;13.40;99.90
8824;DHT22;4448;50.904;4.694;2023-05-17T07:06:46;13.40;99.90
8824;DHT22;4448;50.904;4.694;2023-05-17T07:09:12;13.40;99.90
8824;DHT22;4448;50.904;4.694;2023-05-17T07:11:38;13.40;99.90
8824;DHT22;4448;50.904;4.694;2023-05-17T07:14:04;13.50;99.90
8824;DHT22;4448;50.904;4.694;2023-05-17T07:16:29;13.50;99.90
8824;DHT22;4448;50.904;4.694;2023-05-17T07:18:55;13.50;99.90
8824;DHT22;4448;50.904;4.694;2023-05-17T07:21:22;13.60;99.90
8824;DHT22;4448;50.904;4.694;2023-05-17T07:23:49;13.60;99.90
8824;DHT22;4448;50.904;4.694;2023-05-17T07:26:17;13.60;99.90
8824;DHT22;4448;50.904;4.694;2023-05-17T07:28:43;13.60;99.90
8824;DHT22;4448;50.904;4.694;2023-05-17T07:31:09;13.60;99.90
8824;DHT22;4448;50.904;4.694;2023-05-17T07:33:36;13.60;99.90
8824;DHT22;4448;50.904;4.694;2023-05-17T07:36:02;13.60;99.90
8824;DHT22;4448;50.904;4.694;2023-05-17T07:38:28;13.70;99.90
8824;DHT22;4448;50.904;4.694;2023-05-17T07:40:54;13.70;99.90
8824;DHT22;4448;50.904;4.694;2023-05-17T07:43:19;13.70;99.90
8824;DHT22;4448;50.904;4.694;2023-05-17T07:45:45;13.80;99.90
8824;DHT22;4448;50.904;4.694;2023-05-17T07:48:11;13.80;99.90
8824;DHT22;4448;50.904;4.694;2023-05-17T07:50:37;13.90;99.90
8824;DHT22;4448;50.904;4.694;2023-05-17T07:53:03;14.00;99.90
8824;DHT22;4448;50.904;4.694;2023-05-17T07:55:29;14.00;99.90
8824;DHT22;4448;50.904;4.694;2023-05-17T07:57:55;14.00;99.90
8824;DHT22;4448;50.904;4.694;2023-05-17T08:00:21;14.10;99.90
8824;DHT22;4448;50.904;4.694;2023-05-17T08:02:47;14.10;99.90
8824;DHT22;4448;50.904;4.694;2023-05-17T08:05:13;14.20;99.90
8824;DHT22;4448;50.904;4.694;2023-05-17T08:07:38;14.30;99.90
8824;DHT22;4448;50.904;4.694;2023-05-17T08:10:05;14.30;99.90
8824;DHT22;4448;50.904;4.694;2023-05-17T08:12:30;14.40;99.90
8824;DHT22;4448;50.904;4.694;2023-05-17T08:14:56;14.40;99.90
8824;DHT22;4448;50.904;4.694;2023-05-17T08:17:22;14.50;99.90
8824;DHT22;4448;50.904;4.694;2023-05-17T08:19:47;14.50;99.90
8824;DHT22;4448;50.904;4.694;2023-05-17T08:22:14;14.50;99.90
8824;DHT22;4448;50.904;4.694;2023-05-17T08:24:40;14.60;99.90
8824;DHT22;4448;50.904;4.694;2023-05-17T08:27:06;14.60;99.90
8824;DHT22;4448;50.904;4.694;2023-05-17T08:29:31;14.60;99.90
8824;DHT22;4448;50.904;4.694;2023-05-17T08:31:57;14.70;99.90
8824;DHT22;4448;50.904;4.694;2023-05-17T08:34:23;14.70;99.90
8824;DHT22;4448;50.904;4.694;2023-05-17T08:36:48;14.70;99.90
8824;DHT22;4448;50.904;4.694;2023-05-17T08:39:14;14.70;99.90
8824;DHT22;4448;50.904;4.694;2023-05-17T08:41:40;14.70;99.90
8824;DHT22;4448;50.904;4.694;2023-05-17T08:44:06;14.70;99.90
8824;DHT22;4448;50.904;4.694;2023-05-17T08:46:32;14.70;99.90
8824;DHT22;4448;50.904;4.694;2023-05-17T08:48:59;14.60;99.90
8824;DHT22;4448;50.904;4.694;2023-05-17T08:51:27;14.60;99.90
8824;DHT22;4448;50.904;4.694;2023-05-17T08:53:54;14.60;99.90
8824;DHT22;4448;50.904;4.694;2023-05-17T08:56:20;14.60;99.90
8824;DHT22;4448;50.904;4.694;2023-05-17T08:58:51;14.60;99.90
8824;DHT22;4448;50.904;4.694;2023-05-17T09:01:18;14.60;99.90
8824;DHT22;4448;50.904;4.694;2023-05-17T09:03:46;14.60;99.90
8824;DHT22;4448;50.904;4.694;2023-05-17T09:06:16;14.70;99.90
8824;DHT22;4448;50.904;4.694;2023-05-17T09:08:44;14.70;99.90
8824;DHT22;4448;50.904;4.694;2023-05-17T09:11:10;14.70;99.90
8824;DHT22;4448;50.904;4.694;2023-05-17T09:13:36;14.80;99.90
8824;DHT22;4448;50.904;4.694;2023-05-17T09:16:03;14.80;99.90
8824;DHT22;4448;50.904;4.694;2023-05-17T09:18:36;14.90;99.90
8824;DHT22;4448;50.904;4.694;2023-05-17T09:21:03;15.00;99.90
8824;DHT22;4448;50.904;4.694;2023-05-17T09:23:31;15.10;99.90
8824;DHT22;4448;50.904;4.694;2023-05-17T09:26:07;15.10;99.90
8824;DHT22;4448;50.904;4.694;2023-05-17T09:28:37;15.20;99.90
8824;DHT22;4448;50.904;4.694;2023-05-17T09:31:08;15.30;99.90
8824;DHT22;4448;50.904;4.694;2023-05-17T09:33:41;15.40;99.90
8824;DHT22;4448;50.904;4.694;2023-05-17T09:36:15;15.50;99.90
8824;DHT22;4448;50.904;4.694;2023-05-17T09:38:41;15.70;99.90
8824;DHT22;4448;50.904;4.694;2023-05-17T09:41:07;15.80;99.90
8824;DHT22;4448;50.904;4.694;2023-05-17T09:43:33;15.90;99.90
8824;DHT22;4448;50.904;4.694;2023-05-17T09:45:58;16.00;99.90
8824;DHT22;4448;50.904;4.694;2023-05-17T09:48:25;16.00;99.90
8824;DHT22;4448;50.904;4.694;2023-05-17T09:50:53;16.10;99.90
8824;DHT22;4448;50.904;4.694;2023-05-17T09:53:28;16.10;99.90
8824;DHT22;4448;50.904;4.694;2023-05-17T09:55:59;16.20;99.90
8824;DHT22;4448;50.904;4.694;2023-05-17T09:58:26;16.10;99.90
8824;DHT22;4448;50.904;4.694;2023-05-17T10:01:03;16.10;99.90
8824;DHT22;4448;50.904;4.694;2023-05-17T10:03:33;16.20;99.90
8824;DHT22;4448;50.904;4.694;2023-05-17T10:06:01;16.30;99.90
8824;DHT22;4448;50.904;4.694;2023-05-17T10:08:31;16.40;99.90
8824;DHT22;4448;50.904;4.694;2023-05-17T10:11:09;16.40;99.90
8824;DHT22;4448;50.904;4.694;2023-05-17T10:13:50;16.40;99.90
8824;DHT22;4448;50.904;4.694;2023-05-17T10:16:19;16.50;99.90
8824;DHT22;4448;50.904;4.694;2023-05-17T10:18:46;16.60;99.90
8824;DHT22;4448;50.904;4.694;2023-05-17T10:21:14;16.70;99.90
8824;DHT22;4448;50.904;4.694;2023-05-17T10:23:42;16.80;99.90
8824;DHT22;4448;50.904;4.694;2023-05-17T10:26:08;16.80;99.90
8824;DHT22;4448;50.904;4.694;2023-05-17T10:28:36;16.80;99.90
8824;DHT22;4448;50.904;4.694;2023-05-17T10:31:03;16.90;99.90
8824;DHT22;4448;50.904;4.694;2023-05-17T10:33:31;16.90;99.90
8824;DHT22;4448;50.904;4.694;2023-05-17T10:35:58;16.90;99.90
8824;DHT22;4448;50.904;4.694;2023-05-17T10:38:25;16.90;99.90
8824;DHT22;4448;50.904;4.694;2023-05-17T10:40:53;17.00;99.90
8824;DHT22;4448;50.904;4.694;2023-05-17T10:43:20;17.10;99.90
8824;DHT22;4448;50.904;4.694;2023-05-17T10:45:46;17.20;99.90
8824;DHT22;4448;50.904;4.694;2023-05-17T10:48:14;17.20;99.90
8824;DHT22;4448;50.904;4.694;2023-05-17T10:50:44;17.30;99.90
8824;DHT22;4448;50.904;4.694;2023-05-17T10:53:11;17.40;99.90
8824;DHT22;4448;50.904;4.694;2023-05-17T10:55:42;17.40;99.90
8824;DHT22;4448;50.904;4.694;2023-05-17T10:58:15;17.50;99.90
8824;DHT22;4448;50.904;4.694;2023-05-17T11:00:42;17.60;99.90
8824;DHT22;4448;50.904;4.694;2023-05-17T11:08:35;17.70;99.90
8824;DHT22;4448;50.904;4.694;2023-05-17T11:11:16;17.60;99.90
8824;DHT22;4448;50.904;4.694;2023-05-17T11:14:03;17.70;99.90
8824;DHT22;4448;50.904;4.694;2023-05-17T11:16:36;17.70;99.90
8824;DHT22;4448;50.904;4.694;2023-05-17T11:19:07;17.70;99.90
8824;DHT22;4448;50.904;4.694;2023-05-17T11:21:33;17.80;99.90
8824;DHT22;4448;50.904;4.694;2023-05-17T11:24:01;17.90;99.90
8824;DHT22;4448;50.904;4.694;2023-05-17T11:26:36;17.90;99.90
8824;DHT22;4448;50.904;4.694;2023-05-17T11:29:08;18.00;99.90
8824;DHT22;4448;50.904;4.694;2023-05-17T11:31:36;18.10;99.90
8824;DHT22;4448;50.904;4.694;2023-05-17T11:34:02;18.20;99.90
8824;DHT22;4448;50.904;4.694;2023-05-17T11:36:29;18.20;99.90
8824;DHT22;4448;50.904;4.694;2023-05-17T11:39:19;18.30;99.90
8824;DHT22;4448;50.904;4.694;2023-05-17T11:41:51;18.30;99.90
8824;DHT22;4448;50.904;4.694;2023-05-17T11:44:28;18.30;99.90
8824;DHT22;4448;50.904;4.694;2023-05-17T11:47:04;18.40;99.90
8824;DHT22;4448;50.904;4.694;2023-05-17T11:49:32;18.50;99.90
8824;DHT22;4448;50.904;4.694;2023-05-17T11:51:59;18.60;99.90
8824;DHT22;4448;50.904;4.694;2023-05-17T11:54:25;18.70;99.90
8824;DHT22;4448;50.904;4.694;2023-05-17T11:56:54;18.70;99.90
8824;DHT22;4448;50.904;4.694;2023-05-17T11:59:20;18.80;99.90
8824;DHT22;4448;50.904;4.694;2023-05-17T12:01:47;18.80;99.90
8824;DHT22;4448;50.904;4.694;2023-05-17T12:04:22;18.80;99.90
8824;DHT22;4448;50.904;4.694;2023-05-17T12:06:54;18.90;99.90
8824;DHT22;4448;50.904;4.694;2023-05-17T12:09:23;18.90;99.90
8824;DHT22;4448;50.904;4.694;2023-05-17T12:11:50;18.90;99.90
8824;DHT22;4448;50.904;4.694;2023-05-17T12:14:16;19.10;99.90
8824;DHT22;4448;50.904;4.694;2023-05-17T12:16:53;19.10;99.90
8824;DHT22;4448;50.904;4.694;2023-05-17T12:19:22;19.30;99.90
8824;DHT22;4448;50.904;4.694;2023-05-17T12:21:50;19.40;99.90
8824;DHT22;4448;50.904;4.694;2023-05-17T12:24:16;19.50;99.90
8824;DHT22;4448;50.904;4.694;2023-05-17T12:26:46;19.60;99.90
8824;DHT22;4448;50.904;4.694;2023-05-17T12:29:13;19.70;99.90
8824;DHT22;4448;50.904;4.694;2023-05-17T12:31:46;19.80;99.90
8824;DHT22;4448;50.904;4.694;2023-05-17T12:34:13;19.90;99.90
8824;DHT22;4448;50.904;4.694;2023-05-17T12:36:41;19.90;99.90
8824;DHT22;4448;50.904;4.694;2023-05-17T12:39:08;19.90;99.90
8824;DHT22;4448;50.904;4.694;2023-05-17T12:41:36;19.90;99.90
8824;DHT22;4448;50.904;4.694;2023-05-17T12:44:03;20.00;99.90
8824;DHT22;4448;50.904;4.694;2023-05-17T12:46:29;20.10;99.90
8824;DHT22;4448;50.904;4.694;2023-05-17T12:49:03;20.10;99.90
8824;DHT22;4448;50.904;4.694;2023-05-17T12:51:39;20.20;99.90
8824;DHT22;4448;50.904;4.694;2023-05-17T12:54:05;20.20;99.90
8824;DHT22;4448;50.904;4.694;2023-05-17T12:56:31;20.20;99.90
8824;DHT22;4448;50.904;4.694;2023-05-17T13:04:07;20.10;99.90
8824;DHT22;4448;50.904;4.694;2023-05-17T13:06:48;20.00;99.90
8824;DHT22;4448;50.904;4.694;2023-05-17T13:09:15;20.00;99.90
8824;DHT22;4448;50.904;4.694;2023-05-17T13:11:43;20.00;99.90
8824;DHT22;4448;50.904;4.694;2023-05-17T13:14:14;19.90;99.90
8824;DHT22;4448;50.904;4.694;2023-05-17T13:16:57;19.90;99.90
8824;DHT22;4448;50.904;4.694;2023-05-17T13:19:22;19.90;99.90
8824;DHT22;4448;50.904;4.694;2023-05-17T13:21:48;19.90;99.90
8824;DHT22;4448;50.904;4.694;2023-05-17T13:24:13;19.90;99.90
8824;DHT22;4448;50.904;4.694;2023-05-17T13:26:39;19.90;99.90
8824;DHT22;4448;50.904;4.694;2023-05-17T13:29:05;19.90;99.90
8824;DHT22;4448;50.904;4.694;2023-05-17T13:31:31;19.90;99.90
8824;DHT22;4448;50.904;4.694;2023-05-17T13:33:56;19.90;99.90
8824;DHT22;4448;50.904;4.694;2023-05-17T13:36:22;19.90;99.90
8824;DHT22;4448;50.904;4.694;2023-05-17T13:38:48;19.90;99.90
8824;DHT22;4448;50.904;4.694;2023-05-17T13:41:14;19.90;99.90
8824;DHT22;4448;50.904;4.694;2023-05-17T13:43:40;19.80;99.90
8824;DHT22;4448;50.904;4.694;2023-05-17T13:46:06;19.80;99.90
8824;DHT22;4448;50.904;4.694;2023-05-17T13:48:31;19.80;99.90
8824;DHT22;4448;50.904;4.694;2023-05-17T13:50:57;19.80;99.90
8824;DHT22;4448;50.904;4.694;2023-05-17T13:53:24;19.70;99.90
8824;DHT22;4448;50.904;4.694;2023-05-17T13:55:49;19.70;99.90
8824;DHT22;4448;50.904;4.694;2023-05-17T13:58:15;19.70;99.90
8824;DHT22;4448;50.904;4.694;2023-05-17T14:00:42;19.60;99.90
8824;DHT22;4448;50.904;4.694;2023-05-17T14:03:10;19.60;99.90
8824;DHT22;4448;50.904;4.694;2023-05-17T14:05:37;19.60;99.90
8824;DHT22;4448;50.904;4.694;2023-05-17T14:08:03;19.50;99.90
8824;DHT22;4448;50.904;4.694;2023-05-17T14:10:31;19.50;99.90
8824;DHT22;4448;50.904;4.694;2023-05-17T14:12:56;19.40;99.90
8824;DHT22;4448;50.904;4.694;2023-05-17T14:15:22;19.40;99.90
8824;DHT22;4448;50.904;4.694;2023-05-17T14:17:48;19.30;99.90
8824;DHT22;4448;50.904;4.694;2023-05-17T14:20:14;19.20;99.90
8824;DHT22;4448;50.904;4.694;2023-05-17T14:22:41;19.20;99.90
8824;DHT22;4448;50.904;4.694;2023-05-17T14:25:07;19.10;99.90
8824;DHT22;4448;50.904;4.694;2023-05-17T14:27:33;19.10;99.90
8824;DHT22;4448;50.904;4.694;2023-05-17T14:29:59;19.00;99.90
8824;DHT22;4448;50.904;4.694;2023-05-17T14:32:26;19.00;99.90
8824;DHT22;4448;50.904;4.694;2023-05-17T14:34:52;18.90;99.90
8824;DHT22;4448;50.904;4.694;2023-05-17T14:37:17;18.80;99.90
8824;DHT22;4448;50.904;4.694;2023-05-17T14:39:45;18.80;99.90
8824;DHT22;4448;50.904;4.694;2023-05-17T14:42:11;18.70;99.90
8824;DHT22;4448;50.904;4.694;2023-05-17T14:44:36;18.60;99.90
8824;DHT22;4448;50.904;4.694;2023-05-17T14:47:06;18.60;99.90
8824;DHT22;4448;50.904;4.694;2023-05-17T14:49:31;18.50;99.90
8824;DHT22;4448;50.904;4.694;2023-05-17T14:51:57;18.50;99.90
8824;DHT22;4448;50.904;4.694;2023-05-17T14:54:23;18.50;99.90
8824;DHT22;4448;50.904;4.694;2023-05-17T14:56:50;18.50;99.90
8824;DHT22;4448;50.904;4.694;2023-05-17T14:59:16;18.40;99.90
8824;DHT22;4448;50.904;4.694;2023-05-17T15:01:42;18.40;99.90
8824;DHT22;4448;50.904;4.694;2023-05-17T15:04:08;18.40;99.90
8824;DHT22;4448;50.904;4.694;2023-05-17T15:06:34;18.30;99.90
8824;DHT22;4448;50.904;4.694;2023-05-17T15:09:00;18.30;99.90
8824;DHT22;4448;50.904;4.694;2023-05-17T15:11:28;18.30;99.90
8824;DHT22;4448;50.904;4.694;2023-05-17T15:13:54;18.20;99.90
8824;DHT22;4448;50.904;4.694;2023-05-17T15:16:20;18.20;99.90
8824;DHT22;4448;50.904;4.694;2023-05-17T15:18:46;18.20;99.90
8824;DHT22;4448;50.904;4.694;2023-05-17T15:21:12;18.10;99.90
8824;DHT22;4448;50.904;4.694;2023-05-17T15:23:38;18.10;99.90
8824;DHT22;4448;50.904;4.694;2023-05-17T15:26:03;18.10;99.90
8824;DHT22;4448;50.904;4.694;2023-05-17T15:28:29;18.10;99.90
8824;DHT22;4448;50.904;4.694;2023-05-17T15:31:02;18.00;99.90
8824;DHT22;4448;50.904;4.694;2023-05-17T15:33:31;18.00;99.90
8824;DHT22;4448;50.904;4.694;2023-05-17T15:35:57;18.00;99.90
8824;DHT22;4448;50.904;4.694;2023-05-17T15:38:22;17.90;99.90
8824;DHT22;4448;50.904;4.694;2023-05-17T15:41:05;17.90;99.90
8824;DHT22;4448;50.904;4.694;2023-05-17T15:43:35;17.80;99.90
8824;DHT22;4448;50.904;4.694;2023-05-17T15:46:01;17.80;99.90
8824;DHT22;4448;50.904;4.694;2023-05-17T15:48:27;17.70;99.90
8824;DHT22;4448;50.904;4.694;2023-05-17T15:50:56;17.70;99.90
8824;DHT22;4448;50.904;4.694;2023-05-17T15:53:23;17.70;99.90
8824;DHT22;4448;50.904;4.694;2023-05-17T15:55:49;17.60;99.90
8824;DHT22;4448;50.904;4.694;2023-05-17T15:58:25;17.60;99.90
8824;DHT22;4448;50.904;4.694;2023-05-17T16:01:06;17.50;99.90
8824;DHT22;4448;50.904;4.694;2023-05-17T16:03:32;17.50;99.90
8824;DHT22;4448;50.904;4.694;2023-05-17T16:05:58;17.50;99.90
8824;DHT22;4448;50.904;4.694;2023-05-17T16:08:23;17.40;99.90
8824;DHT22;4448;50.904;4.694;2023-05-17T16:10:49;17.40;99.90
8824;DHT22;4448;50.904;4.694;2023-05-17T16:13:15;17.30;99.90
8824;DHT22;4448;50.904;4.694;2023-05-17T16:15:41;17.30;99.90
8824;DHT22;4448;50.904;4.694;2023-05-17T16:18:06;17.30;99.90